sensor_id;sensor_type;location;lat;lon;timestamp;P1;durP1;ratioP1;P2;durP2;ratioP2
36243;SDS011;22284;49.956;19.816;2022-12-10T00:01:30;30.57;;;16.73;;
36243;SDS011;22284;49.956;19.816;2022-12-10T00:04:33;29.47;;;16.43;;
36243;SDS011;22284;49.956;19.816;2022-12-10T00:07:34;37.20;;;21.00;;
36243;SDS011;22284;49.956;19.816;2022-12-10T00:10:38;33.50;;;18.33;;
36243;SDS011;22284;49.956;19.816;2022-12-10T00:13:41;32.73;;;18.73;;
36243;SDS011;22284;49.956;19.816;2022-12-10T00:16:43;32.77;;;18.57;;
36243;SDS011;22284;49.956;19.816;2022-12-10T00:19:44;32.40;;;19.03;;
36243;SDS011;22284;49.956;19.816;2022-12-10T00:22:45;34.23;;;19.67;;
36243;SDS011;22284;49.956;19.816;2022-12-10T00:25:46;29.23;;;17.47;;
36243;SDS011;22284;49.956;19.816;2022-12-10T00:28:47;29.83;;;16.20;;
36243;SDS011;22284;49.956;19.816;2022-12-10T00:31:49;29.47;;;17.13;;
36243;SDS011;22284;49.956;19.816;2022-12-10T00:34:50;26.93;;;15.00;;
36243;SDS011;22284;49.956;19.816;2022-12-10T00:37:51;32.07;;;17.17;;
36243;SDS011;22284;49.956;19.816;2022-12-10T00:40:52;81.97;;;34.43;;
36243;SDS011;22284;49.956;19.816;2022-12-10T00:43:53;83.07;;;33.23;;
36243;SDS011;22284;49.956;19.816;2022-12-10T00:46:54;40.47;;;18.40;;
36243;SDS011;22284;49.956;19.816;2022-12-10T00:49:55;29.93;;;14.93;;
36243;SDS011;22284;49.956;19.816;2022-12-10T00:52:56;30.43;;;15.40;;
36243;SDS011;22284;49.956;19.816;2022-12-10T00:55:57;31.23;;;15.90;;
36243;SDS011;22284;49.956;19.816;2022-12-10T00:59:00;23.02;;;13.25;;
36243;SDS011;22284;49.956;19.816;2022-12-10T01:02:02;27.93;;;17.30;;
36243;SDS011;22284;49.956;19.816;2022-12-10T01:05:03;30.93;;;17.03;;
36243;SDS011;22284;49.956;19.816;2022-12-10T01:08:05;29.07;;;16.13;;
36243;SDS011;22284;49.956;19.816;2022-12-10T01:11:06;24.33;;;13.60;;
36243;SDS011;22284;49.956;19.816;2022-12-10T01:17:14;22.77;;;12.53;;
36243;SDS011;22284;49.956;19.816;2022-12-10T01:20:15;27.83;;;14.97;;
36243;SDS011;22284;49.956;19.816;2022-12-10T01:23:16;25.97;;;14.23;;
36243;SDS011;22284;49.956;19.816;2022-12-10T01:26:18;21.83;;;11.73;;
36243;SDS011;22284;49.956;19.816;2022-12-10T01:29:23;22.53;;;12.57;;
36243;SDS011;22284;49.956;19.816;2022-12-10T01:32:25;21.73;;;11.70;;
36243;SDS011;22284;49.956;19.816;2022-12-10T01:35:26;22.17;;;12.77;;
36243;SDS011;22284;49.956;19.816;2022-12-10T01:38:26;22.37;;;12.33;;
36243;SDS011;22284;49.956;19.816;2022-12-10T01:41:29;22.73;;;12.03;;
36243;SDS011;22284;49.956;19.816;2022-12-10T01:47:47;22.83;;;12.23;;
36243;SDS011;22284;49.956;19.816;2022-12-10T01:50:48;21.20;;;11.80;;
36243;SDS011;22284;49.956;19.816;2022-12-10T01:53:49;22.07;;;12.83;;
36243;SDS011;22284;49.956;19.816;2022-12-10T01:56:51;22.17;;;12.30;;
36243;SDS011;22284;49.956;19.816;2022-12-10T02:00:04;22.10;;;12.00;;
36243;SDS011;22284;49.956;19.816;2022-12-10T02:03:13;23.03;;;12.60;;
36243;SDS011;22284;49.956;19.816;2022-12-10T02:06:35;22.37;;;12.43;;
36243;SDS011;22284;49.956;19.816;2022-12-10T02:09:58;20.32;;;12.30;;
36243;SDS011;22284;49.956;19.816;2022-12-10T02:13:13;23.00;;;12.77;;
36243;SDS011;22284;49.956;19.816;2022-12-10T02:16:20;29.87;;;15.90;;
36243;SDS011;22284;49.956;19.816;2022-12-10T02:23:04;29.83;;;16.27;;
36243;SDS011;22284;49.956;19.816;2022-12-10T02:26:15;29.50;;;16.30;;
36243;SDS011;22284;49.956;19.816;2022-12-10T02:29:41;28.70;;;15.27;;
36243;SDS011;22284;49.956;19.816;2022-12-10T02:32:44;26.48;;;14.90;;
36243;SDS011;22284;49.956;19.816;2022-12-10T02:35:49;27.17;;;15.20;;
36243;SDS011;22284;49.956;19.816;2022-12-10T02:38:52;25.00;;;14.97;;
36243;SDS011;22284;49.956;19.816;2022-12-10T02:41:54;26.17;;;15.13;;
36243;SDS011;22284;49.956;19.816;2022-12-10T02:44:56;25.87;;;14.77;;
36243;SDS011;22284;49.956;19.816;2022-12-10T02:47:58;26.60;;;15.13;;
36243;SDS011;22284;49.956;19.816;2022-12-10T02:51:02;26.63;;;15.03;;
36243;SDS011;22284;49.956;19.816;2022-12-10T02:54:04;31.37;;;16.83;;
36243;SDS011;22284;49.956;19.816;2022-12-10T02:57:15;30.33;;;16.90;;
36243;SDS011;22284;49.956;19.816;2022-12-10T03:00:26;30.13;;;19.33;;
36243;SDS011;22284;49.956;19.816;2022-12-10T03:03:30;28.70;;;17.33;;
36243;SDS011;22284;49.956;19.816;2022-12-10T03:06:45;28.47;;;16.32;;
36243;SDS011;22284;49.956;19.816;2022-12-10T03:09:56;26.60;;;15.93;;
36243;SDS011;22284;49.956;19.816;2022-12-10T03:13:06;28.37;;;15.77;;
36243;SDS011;22284;49.956;19.816;2022-12-10T03:16:10;30.37;;;17.60;;
36243;SDS011;22284;49.956;19.816;2022-12-10T03:19:13;29.53;;;16.93;;
36243;SDS011;22284;49.956;19.816;2022-12-10T03:22:18;29.00;;;16.07;;
36243;SDS011;22284;49.956;19.816;2022-12-10T03:25:22;28.60;;;16.87;;
36243;SDS011;22284;49.956;19.816;2022-12-10T03:28:25;27.13;;;15.47;;
36243;SDS011;22284;49.956;19.816;2022-12-10T03:31:27;27.77;;;16.23;;
36243;SDS011;22284;49.956;19.816;2022-12-10T03:34:30;26.42;;;15.05;;
36243;SDS011;22284;49.956;19.816;2022-12-10T03:37:32;25.77;;;15.20;;
36243;SDS011;22284;49.956;19.816;2022-12-10T03:40:34;28.30;;;16.83;;
36243;SDS011;22284;49.956;19.816;2022-12-10T03:43:36;29.17;;;16.43;;
36243;SDS011;22284;49.956;19.816;2022-12-10T03:46:57;30.00;;;16.90;;
36243;SDS011;22284;49.956;19.816;2022-12-10T03:49:58;26.37;;;15.20;;
36243;SDS011;22284;49.956;19.816;2022-12-10T03:52:59;27.60;;;16.23;;
36243;SDS011;22284;49.956;19.816;2022-12-10T03:56:00;26.87;;;16.23;;
36243;SDS011;22284;49.956;19.816;2022-12-10T03:59:01;31.33;;;15.83;;
36243;SDS011;22284;49.956;19.816;2022-12-10T04:02:02;28.03;;;16.73;;
36243;SDS011;22284;49.956;19.816;2022-12-10T04:05:03;27.47;;;17.10;;
36243;SDS011;22284;49.956;19.816;2022-12-10T04:08:07;29.73;;;17.33;;
36243;SDS011;22284;49.956;19.816;2022-12-10T04:11:09;29.77;;;16.83;;
36243;SDS011;22284;49.956;19.816;2022-12-10T04:17:32;33.27;;;18.03;;
36243;SDS011;22284;49.956;19.816;2022-12-10T04:20:34;30.80;;;17.27;;
36243;SDS011;22284;49.956;19.816;2022-12-10T04:23:53;32.87;;;18.57;;
36243;SDS011;22284;49.956;19.816;2022-12-10T04:30:39;30.13;;;17.67;;
36243;SDS011;22284;49.956;19.816;2022-12-10T04:33:40;31.07;;;18.13;;
36243;SDS011;22284;49.956;19.816;2022-12-10T04:36:41;31.20;;;17.67;;
36243;SDS011;22284;49.956;19.816;2022-12-10T04:39:42;32.17;;;18.50;;
36243;SDS011;22284;49.956;19.816;2022-12-10T04:42:43;33.17;;;19.33;;
36243;SDS011;22284;49.956;19.816;2022-12-10T04:45:44;35.77;;;20.60;;
36243;SDS011;22284;49.956;19.816;2022-12-10T04:48:45;37.23;;;20.80;;
36243;SDS011;22284;49.956;19.816;2022-12-10T04:51:46;35.07;;;21.03;;
36243;SDS011;22284;49.956;19.816;2022-12-10T04:54:47;33.17;;;20.03;;
36243;SDS011;22284;49.956;19.816;2022-12-10T04:57:48;38.83;;;21.47;;
36243;SDS011;22284;49.956;19.816;2022-12-10T05:00:49;73.00;;;34.57;;
36243;SDS011;22284;49.956;19.816;2022-12-10T05:03:50;48.70;;;24.97;;
36243;SDS011;22284;49.956;19.816;2022-12-10T05:06:52;42.60;;;24.00;;
36243;SDS011;22284;49.956;19.816;2022-12-10T05:09:53;41.73;;;22.93;;
36243;SDS011;22284;49.956;19.816;2022-12-10T05:12:54;37.80;;;22.57;;
36243;SDS011;22284;49.956;19.816;2022-12-10T05:15:56;38.87;;;22.43;;
36243;SDS011;22284;49.956;19.816;2022-12-10T05:18:57;38.57;;;22.83;;
36243;SDS011;22284;49.956;19.816;2022-12-10T05:21:59;41.87;;;23.50;;
36243;SDS011;22284;49.956;19.816;2022-12-10T05:25:19;39.30;;;22.27;;
36243;SDS011;22284;49.956;19.816;2022-12-10T05:28:20;42.97;;;23.30;;
36243;SDS011;22284;49.956;19.816;2022-12-10T05:31:24;42.95;;;23.50;;
36243;SDS011;22284;49.956;19.816;2022-12-10T05:34:28;38.80;;;21.70;;
36243;SDS011;22284;49.956;19.816;2022-12-10T05:37:29;40.10;;;22.47;;
36243;SDS011;22284;49.956;19.816;2022-12-10T05:40:30;38.33;;;21.10;;
36243;SDS011;22284;49.956;19.816;2022-12-10T05:43:32;39.18;;;22.48;;
36243;SDS011;22284;49.956;19.816;2022-12-10T05:46:34;37.57;;;21.17;;
36243;SDS011;22284;49.956;19.816;2022-12-10T05:49:35;35.83;;;19.90;;
36243;SDS011;22284;49.956;19.816;2022-12-10T05:52:36;34.23;;;19.03;;
36243;SDS011;22284;49.956;19.816;2022-12-10T05:55:37;40.80;;;21.60;;
36243;SDS011;22284;49.956;19.816;2022-12-10T05:58:39;41.63;;;23.23;;
36243;SDS011;22284;49.956;19.816;2022-12-10T06:01:41;37.30;;;21.35;;
36243;SDS011;22284;49.956;19.816;2022-12-10T06:04:43;38.37;;;21.83;;
36243;SDS011;22284;49.956;19.816;2022-12-10T06:07:44;37.83;;;21.60;;
36243;SDS011;22284;49.956;19.816;2022-12-10T06:10:45;36.90;;;20.43;;
36243;SDS011;22284;49.956;19.816;2022-12-10T06:13:46;44.93;;;24.03;;
36243;SDS011;22284;49.956;19.816;2022-12-10T06:16:47;44.27;;;23.33;;
36243;SDS011;22284;49.956;19.816;2022-12-10T06:19:48;44.23;;;24.20;;
36243;SDS011;22284;49.956;19.816;2022-12-10T06:22:49;42.53;;;23.80;;
36243;SDS011;22284;49.956;19.816;2022-12-10T06:25:50;44.37;;;24.83;;
36243;SDS011;22284;49.956;19.816;2022-12-10T06:28:52;46.13;;;24.43;;
36243;SDS011;22284;49.956;19.816;2022-12-10T06:31:54;48.00;;;24.12;;
36243;SDS011;22284;49.956;19.816;2022-12-10T06:34:55;42.33;;;22.80;;
36243;SDS011;22284;49.956;19.816;2022-12-10T06:37:56;39.83;;;22.67;;
36243;SDS011;22284;49.956;19.816;2022-12-10T06:40:57;39.30;;;22.43;;
36243;SDS011;22284;49.956;19.816;2022-12-10T06:43:58;40.27;;;22.47;;
36243;SDS011;22284;49.956;19.816;2022-12-10T06:46:59;39.03;;;21.67;;
36243;SDS011;22284;49.956;19.816;2022-12-10T06:50:00;37.00;;;22.13;;
36243;SDS011;22284;49.956;19.816;2022-12-10T06:53:02;44.23;;;23.33;;
36243;SDS011;22284;49.956;19.816;2022-12-10T06:56:04;43.53;;;24.33;;
36243;SDS011;22284;49.956;19.816;2022-12-10T06:59:07;49.27;;;26.17;;
36243;SDS011;22284;49.956;19.816;2022-12-10T07:02:11;51.67;;;27.27;;
36243;SDS011;22284;49.956;19.816;2022-12-10T07:05:12;55.10;;;27.40;;
36243;SDS011;22284;49.956;19.816;2022-12-10T07:08:14;47.20;;;25.23;;
36243;SDS011;22284;49.956;19.816;2022-12-10T07:11:16;43.13;;;23.43;;
36243;SDS011;22284;49.956;19.816;2022-12-10T07:14:20;41.03;;;22.37;;
36243;SDS011;22284;49.956;19.816;2022-12-10T07:17:21;39.30;;;21.70;;
36243;SDS011;22284;49.956;19.816;2022-12-10T07:20:22;38.03;;;20.07;;
36243;SDS011;22284;49.956;19.816;2022-12-10T07:23:23;36.50;;;20.57;;
36243;SDS011;22284;49.956;19.816;2022-12-10T07:26:25;38.83;;;20.10;;
36243;SDS011;22284;49.956;19.816;2022-12-10T07:29:28;35.73;;;19.03;;
36243;SDS011;22284;49.956;19.816;2022-12-10T07:32:29;34.77;;;19.30;;
36243;SDS011;22284;49.956;19.816;2022-12-10T07:35:30;34.50;;;19.37;;
36243;SDS011;22284;49.956;19.816;2022-12-10T07:38:31;34.37;;;18.37;;
36243;SDS011;22284;49.956;19.816;2022-12-10T07:41:32;33.57;;;19.23;;
36243;SDS011;22284;49.956;19.816;2022-12-10T07:44:33;35.80;;;19.73;;
36243;SDS011;22284;49.956;19.816;2022-12-10T07:47:35;40.73;;;24.17;;
36243;SDS011;22284;49.956;19.816;2022-12-10T07:50:38;47.80;;;27.83;;
36243;SDS011;22284;49.956;19.816;2022-12-10T07:53:39;51.77;;;27.97;;
36243;SDS011;22284;49.956;19.816;2022-12-10T07:56:40;61.93;;;33.50;;
36243;SDS011;22284;49.956;19.816;2022-12-10T07:59:42;53.20;;;30.50;;
36243;SDS011;22284;49.956;19.816;2022-12-10T08:02:43;56.17;;;32.13;;
36243;SDS011;22284;49.956;19.816;2022-12-10T08:05:44;47.90;;;27.97;;
36243;SDS011;22284;49.956;19.816;2022-12-10T08:08:45;47.97;;;25.67;;
36243;SDS011;22284;49.956;19.816;2022-12-10T08:11:47;48.23;;;26.67;;
36243;SDS011;22284;49.956;19.816;2022-12-10T08:14:48;45.57;;;26.17;;
36243;SDS011;22284;49.956;19.816;2022-12-10T08:17:50;50.80;;;28.00;;
36243;SDS011;22284;49.956;19.816;2022-12-10T08:20:52;46.90;;;26.37;;
36243;SDS011;22284;49.956;19.816;2022-12-10T08:23:53;50.73;;;27.80;;
36243;SDS011;22284;49.956;19.816;2022-12-10T08:26:55;42.43;;;23.73;;
36243;SDS011;22284;49.956;19.816;2022-12-10T08:29:56;44.27;;;24.30;;
36243;SDS011;22284;49.956;19.816;2022-12-10T08:32:57;44.00;;;25.07;;
36243;SDS011;22284;49.956;19.816;2022-12-10T08:35:58;51.03;;;28.17;;
36243;SDS011;22284;49.956;19.816;2022-12-10T08:39:00;47.07;;;27.73;;
36243;SDS011;22284;49.956;19.816;2022-12-10T08:42:01;48.70;;;27.00;;
36243;SDS011;22284;49.956;19.816;2022-12-10T08:45:03;50.70;;;28.67;;
36243;SDS011;22284;49.956;19.816;2022-12-10T08:48:05;50.08;;;28.25;;
36243;SDS011;22284;49.956;19.816;2022-12-10T08:51:06;46.10;;;26.30;;
36243;SDS011;22284;49.956;19.816;2022-12-10T08:54:09;47.50;;;26.55;;
36243;SDS011;22284;49.956;19.816;2022-12-10T08:57:10;48.63;;;29.17;;
36243;SDS011;22284;49.956;19.816;2022-12-10T09:00:13;49.43;;;28.10;;
36243;SDS011;22284;49.956;19.816;2022-12-10T09:03:15;49.90;;;28.27;;
36243;SDS011;22284;49.956;19.816;2022-12-10T09:06:21;52.10;;;28.00;;
36243;SDS011;22284;49.956;19.816;2022-12-10T09:09:24;54.40;;;30.47;;
36243;SDS011;22284;49.956;19.816;2022-12-10T09:12:25;53.20;;;29.27;;
36243;SDS011;22284;49.956;19.816;2022-12-10T09:15:26;55.03;;;30.47;;
36243;SDS011;22284;49.956;19.816;2022-12-10T09:18:27;50.73;;;28.90;;
36243;SDS011;22284;49.956;19.816;2022-12-10T09:21:28;47.30;;;27.80;;
36243;SDS011;22284;49.956;19.816;2022-12-10T09:24:30;50.33;;;29.93;;
36243;SDS011;22284;49.956;19.816;2022-12-10T09:27:31;53.27;;;29.83;;
36243;SDS011;22284;49.956;19.816;2022-12-10T09:30:35;57.13;;;30.77;;
36243;SDS011;22284;49.956;19.816;2022-12-10T09:33:36;58.50;;;33.53;;
36243;SDS011;22284;49.956;19.816;2022-12-10T09:36:38;60.40;;;34.33;;
36243;SDS011;22284;49.956;19.816;2022-12-10T09:39:39;65.00;;;35.00;;
36243;SDS011;22284;49.956;19.816;2022-12-10T09:46:10;65.17;;;34.87;;
36243;SDS011;22284;49.956;19.816;2022-12-10T09:52:52;70.20;;;36.47;;
36243;SDS011;22284;49.956;19.816;2022-12-10T09:55:55;67.80;;;35.50;;
36243;SDS011;22284;49.956;19.816;2022-12-10T09:58:57;66.10;;;36.70;;
36243;SDS011;22284;49.956;19.816;2022-12-10T10:02:20;69.53;;;37.47;;
36243;SDS011;22284;49.956;19.816;2022-12-10T10:05:26;73.80;;;38.47;;
36243;SDS011;22284;49.956;19.816;2022-12-10T10:08:46;73.37;;;37.83;;
36243;SDS011;22284;49.956;19.816;2022-12-10T10:11:51;68.03;;;34.97;;
36243;SDS011;22284;49.956;19.816;2022-12-10T10:14:52;66.00;;;35.17;;
36243;SDS011;22284;49.956;19.816;2022-12-10T10:17:53;65.87;;;34.73;;
36243;SDS011;22284;49.956;19.816;2022-12-10T10:20:58;67.63;;;35.67;;
36243;SDS011;22284;49.956;19.816;2022-12-10T10:24:02;74.05;;;37.08;;
36243;SDS011;22284;49.956;19.816;2022-12-10T10:27:15;67.83;;;36.53;;
36243;SDS011;22284;49.956;19.816;2022-12-10T10:30:20;69.97;;;36.57;;
36243;SDS011;22284;49.956;19.816;2022-12-10T10:33:24;137.23;;;70.97;;
36243;SDS011;22284;49.956;19.816;2022-12-10T10:36:26;89.50;;;46.13;;
36243;SDS011;22284;49.956;19.816;2022-12-10T10:39:33;88.80;;;45.60;;
36243;SDS011;22284;49.956;19.816;2022-12-10T10:42:40;87.00;;;44.05;;
36243;SDS011;22284;49.956;19.816;2022-12-10T10:45:54;84.00;;;42.97;;
36243;SDS011;22284;49.956;19.816;2022-12-10T10:49:19;81.53;;;41.73;;
36243;SDS011;22284;49.956;19.816;2022-12-10T10:52:35;83.00;;;42.40;;
36243;SDS011;22284;49.956;19.816;2022-12-10T10:55:41;72.47;;;38.23;;
36243;SDS011;22284;49.956;19.816;2022-12-10T11:02:29;69.60;;;37.57;;
36243;SDS011;22284;49.956;19.816;2022-12-10T11:05:37;64.77;;;35.10;;
36243;SDS011;22284;49.956;19.816;2022-12-10T11:08:38;63.70;;;34.97;;
36243;SDS011;22284;49.956;19.816;2022-12-10T11:11:42;60.63;;;32.80;;
36243;SDS011;22284;49.956;19.816;2022-12-10T11:14:45;54.03;;;29.27;;
36243;SDS011;22284;49.956;19.816;2022-12-10T11:17:47;51.93;;;28.40;;
36243;SDS011;22284;49.956;19.816;2022-12-10T11:20:58;56.17;;;30.67;;
36243;SDS011;22284;49.956;19.816;2022-12-10T11:24:09;55.40;;;30.67;;
36243;SDS011;22284;49.956;19.816;2022-12-10T11:27:18;58.53;;;30.70;;
36243;SDS011;22284;49.956;19.816;2022-12-10T11:30:25;52.30;;;29.10;;
36243;SDS011;22284;49.956;19.816;2022-12-10T11:33:34;48.10;;;25.77;;
36243;SDS011;22284;49.956;19.816;2022-12-10T11:36:54;50.40;;;27.50;;
36243;SDS011;22284;49.956;19.816;2022-12-10T11:43:33;57.00;;;29.37;;
36243;SDS011;22284;49.956;19.816;2022-12-10T11:47:01;49.27;;;26.10;;
36243;SDS011;22284;49.956;19.816;2022-12-10T11:50:25;49.23;;;26.80;;
36243;SDS011;22284;49.956;19.816;2022-12-10T11:53:54;48.50;;;24.80;;
36243;SDS011;22284;49.956;19.816;2022-12-10T11:57:11;46.50;;;25.87;;
36243;SDS011;22284;49.956;19.816;2022-12-10T12:00:45;43.52;;;24.63;;
36243;SDS011;22284;49.956;19.816;2022-12-10T12:11:10;59.70;;;31.93;;
36243;SDS011;22284;49.956;19.816;2022-12-10T12:17:36;47.67;;;24.93;;
36243;SDS011;22284;49.956;19.816;2022-12-10T12:20:49;51.83;;;27.00;;
36243;SDS011;22284;49.956;19.816;2022-12-10T12:23:58;50.50;;;25.43;;
36243;SDS011;22284;49.956;19.816;2022-12-10T12:27:18;47.23;;;25.93;;
36243;SDS011;22284;49.956;19.816;2022-12-10T12:30:33;45.93;;;25.97;;
36243;SDS011;22284;49.956;19.816;2022-12-10T12:33:39;50.97;;;27.43;;
36243;SDS011;22284;49.956;19.816;2022-12-10T12:36:46;45.33;;;26.23;;
36243;SDS011;22284;49.956;19.816;2022-12-10T12:39:55;54.03;;;29.13;;
36243;SDS011;22284;49.956;19.816;2022-12-10T12:43:10;58.03;;;30.73;;
36243;SDS011;22284;49.956;19.816;2022-12-10T12:46:21;49.80;;;26.10;;
36243;SDS011;22284;49.956;19.816;2022-12-10T12:49:41;58.60;;;34.48;;
36243;SDS011;22284;49.956;19.816;2022-12-10T12:52:46;62.40;;;37.30;;
36243;SDS011;22284;49.956;19.816;2022-12-10T12:55:59;51.27;;;28.83;;
36243;SDS011;22284;49.956;19.816;2022-12-10T13:05:53;43.68;;;24.77;;
36243;SDS011;22284;49.956;19.816;2022-12-10T13:12:32;41.57;;;23.20;;
36243;SDS011;22284;49.956;19.816;2022-12-10T13:15:46;40.60;;;21.83;;
36243;SDS011;22284;49.956;19.816;2022-12-10T13:18:47;44.60;;;24.57;;
36243;SDS011;22284;49.956;19.816;2022-12-10T13:25:16;56.00;;;28.13;;
36243;SDS011;22284;49.956;19.816;2022-12-10T13:31:40;62.30;;;35.37;;
36243;SDS011;22284;49.956;19.816;2022-12-10T13:34:42;62.57;;;34.50;;
36243;SDS011;22284;49.956;19.816;2022-12-10T13:40:58;39.80;;;20.20;;
36243;SDS011;22284;49.956;19.816;2022-12-10T14:02:30;48.20;;;28.17;;
36243;SDS011;22284;49.956;19.816;2022-12-10T14:09:16;54.40;;;31.57;;
36243;SDS011;22284;49.956;19.816;2022-12-10T14:12:27;47.07;;;28.70;;
36243;SDS011;22284;49.956;19.816;2022-12-10T14:15:35;48.57;;;27.97;;
36243;SDS011;22284;49.956;19.816;2022-12-10T14:18:38;47.17;;;27.02;;
36243;SDS011;22284;49.956;19.816;2022-12-10T14:21:46;47.93;;;26.23;;
36243;SDS011;22284;49.956;19.816;2022-12-10T14:24:48;48.13;;;26.37;;
36243;SDS011;22284;49.956;19.816;2022-12-10T14:27:51;48.75;;;25.72;;
36243;SDS011;22284;49.956;19.816;2022-12-10T14:30:54;47.77;;;25.73;;
36243;SDS011;22284;49.956;19.816;2022-12-10T14:33:57;48.23;;;25.77;;
36243;SDS011;22284;49.956;19.816;2022-12-10T14:37:02;51.07;;;26.50;;
36243;SDS011;22284;49.956;19.816;2022-12-10T14:40:05;56.60;;;31.48;;
36243;SDS011;22284;49.956;19.816;2022-12-10T14:43:13;44.65;;;23.30;;
36243;SDS011;22284;49.956;19.816;2022-12-10T14:46:19;46.47;;;23.83;;
36243;SDS011;22284;49.956;19.816;2022-12-10T14:49:26;48.87;;;25.27;;
36243;SDS011;22284;49.956;19.816;2022-12-10T14:52:39;49.07;;;25.57;;
36243;SDS011;22284;49.956;19.816;2022-12-10T14:55:36;47.20;;;26.40;;
36243;SDS011;22284;49.956;19.816;2022-12-10T14:58:39;52.53;;;27.07;;
36243;SDS011;22284;49.956;19.816;2022-12-10T15:01:50;53.67;;;27.53;;
36243;SDS011;22284;49.956;19.816;2022-12-10T15:04:50;51.47;;;26.83;;
36243;SDS011;22284;49.956;19.816;2022-12-10T15:07:54;55.60;;;28.57;;
36243;SDS011;22284;49.956;19.816;2022-12-10T15:10:58;55.73;;;28.43;;
36243;SDS011;22284;49.956;19.816;2022-12-10T15:14:02;51.80;;;27.33;;
36243;SDS011;22284;49.956;19.816;2022-12-10T15:17:04;51.40;;;25.50;;
36243;SDS011;22284;49.956;19.816;2022-12-10T15:20:18;48.47;;;23.83;;
36243;SDS011;22284;49.956;19.816;2022-12-10T15:23:30;46.73;;;23.77;;
36243;SDS011;22284;49.956;19.816;2022-12-10T15:26:32;44.23;;;22.57;;
36243;SDS011;22284;49.956;19.816;2022-12-10T15:32:36;46.80;;;21.93;;
36243;SDS011;22284;49.956;19.816;2022-12-10T15:35:37;43.27;;;21.03;;
36243;SDS011;22284;49.956;19.816;2022-12-10T15:38:38;45.73;;;22.40;;
36243;SDS011;22284;49.956;19.816;2022-12-10T15:44:56;50.43;;;23.50;;
36243;SDS011;22284;49.956;19.816;2022-12-10T15:48:03;52.40;;;23.87;;
36243;SDS011;22284;49.956;19.816;2022-12-10T15:51:07;48.53;;;22.53;;
36243;SDS011;22284;49.956;19.816;2022-12-10T15:54:21;52.47;;;23.47;;
36243;SDS011;22284;49.956;19.816;2022-12-10T15:57:36;51.07;;;22.30;;
36243;SDS011;22284;49.956;19.816;2022-12-10T16:00:40;46.73;;;21.63;;
36243;SDS011;22284;49.956;19.816;2022-12-10T16:03:45;53.63;;;25.23;;
36243;SDS011;22284;49.956;19.816;2022-12-10T16:06:46;56.30;;;28.77;;
36243;SDS011;22284;49.956;19.816;2022-12-10T16:09:47;54.87;;;27.50;;
36243;SDS011;22284;49.956;19.816;2022-12-10T16:12:49;64.53;;;31.53;;
36243;SDS011;22284;49.956;19.816;2022-12-10T16:16:03;65.20;;;30.80;;
36243;SDS011;22284;49.956;19.816;2022-12-10T16:19:10;55.40;;;26.03;;
36243;SDS011;22284;49.956;19.816;2022-12-10T16:25:13;52.07;;;23.77;;
36243;SDS011;22284;49.956;19.816;2022-12-10T16:28:16;56.00;;;25.60;;
36243;SDS011;22284;49.956;19.816;2022-12-10T16:31:20;58.73;;;27.13;;
36243;SDS011;22284;49.956;19.816;2022-12-10T16:34:22;62.50;;;29.90;;
36243;SDS011;22284;49.956;19.816;2022-12-10T16:37:23;62.27;;;27.13;;
36243;SDS011;22284;49.956;19.816;2022-12-10T16:40:25;59.90;;;28.80;;
36243;SDS011;22284;49.956;19.816;2022-12-10T16:43:28;58.27;;;27.30;;
36243;SDS011;22284;49.956;19.816;2022-12-10T16:46:31;60.07;;;27.90;;
36243;SDS011;22284;49.956;19.816;2022-12-10T16:49:32;52.90;;;24.70;;
36243;SDS011;22284;49.956;19.816;2022-12-10T16:52:33;59.63;;;26.30;;
36243;SDS011;22284;49.956;19.816;2022-12-10T16:55:34;51.63;;;22.93;;
36243;SDS011;22284;49.956;19.816;2022-12-10T16:58:35;52.47;;;24.03;;
36243;SDS011;22284;49.956;19.816;2022-12-10T17:01:36;53.50;;;24.50;;
36243;SDS011;22284;49.956;19.816;2022-12-10T17:04:37;49.07;;;22.90;;
36243;SDS011;22284;49.956;19.816;2022-12-10T17:07:38;50.53;;;23.00;;
36243;SDS011;22284;49.956;19.816;2022-12-10T17:10:39;57.93;;;24.80;;
36243;SDS011;22284;49.956;19.816;2022-12-10T17:13:58;54.07;;;24.30;;
36243;SDS011;22284;49.956;19.816;2022-12-10T17:17:00;56.93;;;25.23;;
36243;SDS011;22284;49.956;19.816;2022-12-10T17:20:06;54.88;;;25.45;;
36243;SDS011;22284;49.956;19.816;2022-12-10T17:23:20;53.63;;;24.27;;
36243;SDS011;22284;49.956;19.816;2022-12-10T17:26:26;44.60;;;20.13;;
36243;SDS011;22284;49.956;19.816;2022-12-10T17:29:35;47.30;;;22.60;;
36243;SDS011;22284;49.956;19.816;2022-12-10T17:32:39;50.03;;;22.50;;
36243;SDS011;22284;49.956;19.816;2022-12-10T17:35:42;50.57;;;22.90;;
36243;SDS011;22284;49.956;19.816;2022-12-10T17:41:45;51.60;;;23.20;;
36243;SDS011;22284;49.956;19.816;2022-12-10T17:44:46;44.00;;;20.67;;
36243;SDS011;22284;49.956;19.816;2022-12-10T17:47:47;73.17;;;34.77;;
36243;SDS011;22284;49.956;19.816;2022-12-10T17:50:48;51.53;;;25.03;;
36243;SDS011;22284;49.956;19.816;2022-12-10T17:53:49;49.83;;;22.67;;
36243;SDS011;22284;49.956;19.816;2022-12-10T17:56:50;46.70;;;23.07;;
36243;SDS011;22284;49.956;19.816;2022-12-10T17:59:51;45.43;;;22.23;;
36243;SDS011;22284;49.956;19.816;2022-12-10T18:02:53;43.77;;;21.33;;
36243;SDS011;22284;49.956;19.816;2022-12-10T18:05:54;44.20;;;21.13;;
36243;SDS011;22284;49.956;19.816;2022-12-10T18:08:57;48.17;;;22.57;;
36243;SDS011;22284;49.956;19.816;2022-12-10T18:12:01;44.03;;;20.77;;
36243;SDS011;22284;49.956;19.816;2022-12-10T18:15:02;44.30;;;21.33;;
36243;SDS011;22284;49.956;19.816;2022-12-10T18:18:04;51.13;;;21.43;;
36243;SDS011;22284;49.956;19.816;2022-12-10T18:21:05;49.40;;;22.43;;
36243;SDS011;22284;49.956;19.816;2022-12-10T18:24:07;49.30;;;22.30;;
36243;SDS011;22284;49.956;19.816;2022-12-10T18:27:08;47.47;;;22.67;;
36243;SDS011;22284;49.956;19.816;2022-12-10T18:30:14;52.03;;;23.30;;
36243;SDS011;22284;49.956;19.816;2022-12-10T18:33:17;54.30;;;23.13;;
36243;SDS011;22284;49.956;19.816;2022-12-10T18:36:23;54.10;;;25.27;;
36243;SDS011;22284;49.956;19.816;2022-12-10T18:39:25;54.87;;;24.63;;
36243;SDS011;22284;49.956;19.816;2022-12-10T18:42:28;55.23;;;24.77;;
36243;SDS011;22284;49.956;19.816;2022-12-10T18:45:31;52.23;;;23.47;;
36243;SDS011;22284;49.956;19.816;2022-12-10T18:48:32;53.83;;;22.37;;
36243;SDS011;22284;49.956;19.816;2022-12-10T18:51:33;54.77;;;22.47;;
36243;SDS011;22284;49.956;19.816;2022-12-10T18:54:34;52.00;;;20.77;;
36243;SDS011;22284;49.956;19.816;2022-12-10T18:57:34;53.67;;;21.10;;
36243;SDS011;22284;49.956;19.816;2022-12-10T19:00:36;66.10;;;24.60;;
36243;SDS011;22284;49.956;19.816;2022-12-10T19:03:37;59.83;;;24.60;;
36243;SDS011;22284;49.956;19.816;2022-12-10T19:06:38;53.90;;;20.77;;
36243;SDS011;22284;49.956;19.816;2022-12-10T19:09:39;45.50;;;20.43;;
36243;SDS011;22284;49.956;19.816;2022-12-10T19:12:42;59.10;;;24.93;;
36243;SDS011;22284;49.956;19.816;2022-12-10T19:15:43;69.47;;;25.47;;
36243;SDS011;22284;49.956;19.816;2022-12-10T19:18:44;52.70;;;21.07;;